MASCOMA R @ MASCOMA: From 06/27/2020 16:00 to 07/11/2020 23:00

Date STAGE [FT] FLOW [CFS] LAKE ELEVATION [FT] PRECIPITATION INCREMENT [IN] AIR TEMPERATURE [F]
07/11/2020 18:00 -- -- -- 0.00 --
07/11/2020 17:00 2.12 48.1 749.86 0.00 86.6
07/11/2020 16:00 2.13 49.1 749.86 0.00 87.5
07/11/2020 15:00 2.14 50.1 749.86 0.00 85.8
07/11/2020 14:00 2.14 50.1 749.86 0.00 83.0
07/11/2020 13:00 2.15 51.1 749.87 0.00 80.6
07/11/2020 12:00 2.17 53.2 749.87 0.00 76.4
07/11/2020 11:00 2.15 51.1 749.86 0.00 74.0
07/11/2020 10:00 2.15 51.1 749.86 0.03 72.8
07/11/2020 09:00 2.13 49.1 749.85 0.00 72.3
07/11/2020 08:00 2.13 49.1 749.85 0.02 72.4
07/11/2020 07:00 2.14 50.1 749.85 0.01 71.6
07/11/2020 06:00 2.14 50.1 749.85 0.00 71.6
07/11/2020 05:00 2.14 50.1 749.85 0.00 72.2
07/11/2020 04:00 2.15 51.1 749.86 0.00 72.4
07/11/2020 03:00 2.16 52.2 749.86 0.02 72.4
07/11/2020 02:00 2.18 54.3 749.87 0.00 73.5
07/11/2020 01:00 2.15 51.1 749.86 0.00 72.7
07/11/2020 00:00 2.15 51.1 749.86 0.00 73.8
07/10/2020 23:00 2.16 52.2 749.86 0.00 73.8
07/10/2020 22:00 2.16 52.2 749.86 0.00 72.9
07/10/2020 21:00 2.18 54.3 749.87 0.00 77.4
07/10/2020 20:00 2.17 53.2 749.87 0.00 79.4
07/10/2020 19:00 2.16 52.2 749.87 0.00 80.9
07/10/2020 18:00 2.17 53.2 749.87 0.00 82.1
07/10/2020 17:00 2.18 54.3 749.87 0.00 83.4
07/10/2020 16:00 2.16 52.2 749.87 0.00 84.5
07/10/2020 15:00 2.18 54.3 749.87 0.00 84.1
07/10/2020 14:00 2.17 53.2 749.87 0.00 84.0
07/10/2020 13:00 2.17 53.2 749.87 0.00 82.7
07/10/2020 12:00 2.16 52.2 749.86 0.00 81.8
07/10/2020 11:00 2.17 53.2 749.86 0.00 78.7
07/10/2020 10:00 2.17 53.2 749.86 0.00 76.4
07/10/2020 09:00 2.17 53.2 749.86 0.00 74.8
07/10/2020 08:00 2.18 54.3 749.86 0.00 71.5
07/10/2020 07:00 2.17 53.2 749.86 0.00 70.8
07/10/2020 06:00 2.17 53.2 749.86 0.00 70.8
07/10/2020 05:00 2.17 53.2 749.86 0.00 71.2
07/10/2020 04:00 2.17 53.2 749.86 0.00 71.1
07/10/2020 03:00 2.17 53.2 749.86 0.00 72.4
07/10/2020 02:00 2.17 53.2 749.86 0.00 73.1
07/10/2020 01:00 2.17 53.2 749.86 0.00 73.1
07/10/2020 00:00 2.17 53.2 749.87 0.00 74.4
07/09/2020 23:00 2.17 53.2 749.87 0.00 75.8
07/09/2020 22:00 2.17 53.2 749.87 0.00 78.7
07/09/2020 21:00 2.17 53.2 749.87 0.00 83.6
07/09/2020 20:00 2.15 51.1 749.87 0.00 89.4
07/09/2020 19:00 2.14 50.1 749.87 0.00 89.1
07/09/2020 18:00 2.14 50.1 749.87 0.00 88.2
07/09/2020 17:00 2.16 52.2 749.87 0.00 86.7
07/09/2020 16:00 2.19 55.3 749.87 0.00 85.6
07/09/2020 15:00 2.19 55.3 749.87 0.00 85.8
07/09/2020 14:00 2.20 56.4 749.87 0.00 84.4
07/09/2020 13:00 2.20 56.4 749.87 0.00 84.7
07/09/2020 12:00 2.20 56.4 749.87 0.00 81.3
07/09/2020 11:00 2.21 57.5 749.87 0.00 77.2
07/09/2020 10:00 2.21 57.5 749.87 0.00 71.9
07/09/2020 09:00 2.22 58.6 749.87 0.00 69.8
07/09/2020 08:00 2.21 57.5 749.87 0.00 69.4
07/09/2020 07:00 2.22 58.6 749.87 0.00 68.5
07/09/2020 06:00 2.22 58.6 749.87 0.00 68.9
07/09/2020 05:00 2.21 57.5 749.88 0.00 68.6
07/09/2020 04:00 2.21 57.5 749.88 0.00 69.3
07/09/2020 03:00 2.21 57.5 749.88 0.00 68.4
07/09/2020 02:00 2.22 58.6 749.88 0.00 68.9
07/09/2020 01:00 2.21 57.5 749.88 0.00 69.3
07/09/2020 00:00 2.21 57.5 749.88 0.00 70.2
07/08/2020 23:00 2.21 57.5 749.88 0.00 71.8
07/08/2020 22:00 2.21 57.5 749.88 0.00 73.4
07/08/2020 21:00 2.21 57.5 749.88 0.00 76.1
07/08/2020 20:00 2.22 58.6 749.89 0.00 80.1
07/08/2020 19:00 2.21 57.5 749.88 0.00 80.5
07/08/2020 18:00 2.22 58.6 749.89 0.00 80.1
07/08/2020 17:00 2.22 58.6 749.89 0.00 83.3
07/08/2020 16:00 2.22 58.6 749.89 0.00 84.9
07/08/2020 15:00 2.22 58.6 749.88 0.00 86.6
07/08/2020 14:00 2.22 58.6 749.88 0.00 82.7
07/08/2020 13:00 2.23 59.7 749.89 0.00 83.9
07/08/2020 12:00 2.23 59.7 749.89 0.00 80.3
07/08/2020 11:00 2.24 60.8 749.89 0.00 80.0
07/08/2020 10:00 2.23 59.7 749.89 0.00 77.2
07/08/2020 09:00 2.24 60.8 749.89 0.00 72.7
07/08/2020 08:00 2.23 59.7 749.89 0.00 71.6
07/08/2020 07:00 2.23 59.7 749.89 0.00 69.8
07/08/2020 06:00 2.24 60.8 749.89 0.00 69.6
07/08/2020 05:00 2.24 60.8 749.89 0.00 70.4
07/08/2020 04:00 2.24 60.8 749.90 0.00 70.2
07/08/2020 03:00 2.24 60.8 749.90 0.00 70.8
07/08/2020 02:00 2.25 61.9 749.90 0.00 70.6
07/08/2020 01:00 2.25 61.9 749.90 0.00 70.0
07/08/2020 00:00 2.25 61.9 749.90 0.00 69.4
07/07/2020 23:00 2.26 63.1 749.90 0.00 70.5
07/07/2020 22:00 2.27 64.2 749.91 0.00 72.7
07/07/2020 21:00 2.26 63.1 749.91 0.00 74.3
07/07/2020 20:00 2.27 64.2 749.91 0.00 76.6
07/07/2020 19:00 2.26 63.1 749.92 0.00 78.7
07/07/2020 18:00 2.26 63.1 749.92 0.00 81.0
07/07/2020 17:00 2.27 64.2 749.92 0.00 80.9
07/07/2020 16:00 2.29 66.5 749.92 0.00 81.7
07/07/2020 15:00 2.30 67.7 749.92 0.00 80.1
07/07/2020 14:00 2.30 67.7 749.93 0.00 78.9
07/07/2020 13:00 2.31 68.9 749.92 0.00 79.0
07/07/2020 12:00 2.31 68.9 749.92 0.00 75.7
07/07/2020 11:00 2.31 68.9 749.92 0.00 73.8
07/07/2020 10:00 2.31 68.9 749.92 0.00 70.1
07/07/2020 09:00 2.32 70.1 749.93 0.00 66.3
07/07/2020 08:00 2.32 70.1 749.93 0.00 63.7
07/07/2020 07:00 2.32 70.1 749.93 0.00 63.0
07/07/2020 06:00 2.32 70.1 749.93 0.00 62.9
07/07/2020 05:00 2.33 71.3 749.93 0.00 62.4
07/07/2020 04:00 2.32 70.1 749.93 0.00 62.7
07/07/2020 03:00 2.32 70.1 749.94 0.00 63.6
07/07/2020 02:00 2.31 68.9 749.94 0.00 63.2
07/07/2020 01:00 2.33 71.3 749.94 0.00 63.6
07/07/2020 00:00 2.31 68.9 749.93 0.00 64.9
07/06/2020 23:00 2.31 68.9 749.93 0.00 66.2
07/06/2020 22:00 2.32 70.1 749.94 0.00 67.2
07/06/2020 21:00 2.32 70.1 749.94 0.00 72.8
07/06/2020 20:00 2.32 70.1 749.94 0.00 79.8
07/06/2020 19:00 2.31 68.9 749.94 0.00 84.1
07/06/2020 18:00 2.31 68.9 749.94 0.00 83.9
07/06/2020 17:00 2.31 68.9 749.94 0.00 85.3
07/06/2020 16:00 2.33 71.3 749.95 0.00 84.2
07/06/2020 15:00 2.34 72.5 749.95 0.00 78.5
07/06/2020 14:00 2.36 75.0 749.95 0.00 77.4
07/06/2020 13:00 2.36 75.0 749.95 0.00 77.3
07/06/2020 12:00 2.36 75.0 749.95 0.00 79.3
07/06/2020 11:00 2.35 73.8 749.95 0.00 74.8
07/06/2020 10:00 2.36 75.0 749.95 0.00 73.0
07/06/2020 09:00 2.36 75.0 749.95 0.00 72.0
07/06/2020 08:00 2.36 75.0 749.95 0.00 66.4
07/06/2020 07:00 2.36 75.0 749.96 0.00 63.2
07/06/2020 06:00 2.37 76.3 749.96 0.00 62.0
07/06/2020 05:00 2.36 75.0 749.96 0.00 62.3
07/06/2020 04:00 2.36 75.0 749.96 0.00 63.6
07/06/2020 03:00 2.38 77.5 749.97 0.00 63.9
07/06/2020 02:00 2.38 77.5 749.97 0.00 63.4
07/06/2020 01:00 2.37 76.3 749.97 0.00 64.7
07/06/2020 00:00 2.37 76.3 749.97 0.00 65.1
07/05/2020 23:00 2.39 78.8 749.98 0.00 66.5
07/05/2020 22:00 2.41 81.4 749.98 0.00 68.6
07/05/2020 21:00 2.41 81.4 749.98 0.00 71.1
07/05/2020 20:00 2.38 77.5 749.98 0.00 78.5
07/05/2020 19:00 2.39 78.8 749.98 0.00 80.8
07/05/2020 18:00 2.38 77.5 749.98 0.00 83.1
07/05/2020 17:00 2.38 77.5 749.98 0.00 84.6
07/05/2020 16:00 2.39 78.8 749.98 0.00 85.3
07/05/2020 15:00 2.39 78.8 749.99 0.00 85.4
07/05/2020 14:00 2.41 81.4 749.99 0.00 82.7
07/05/2020 13:00 2.42 82.7 749.99 0.00 81.1
07/05/2020 12:00 2.42 82.7 749.99 0.00 82.3
07/05/2020 11:00 2.42 82.7 749.99 0.00 79.4
07/05/2020 10:00 2.43 84.0 750.00 0.00 74.2
07/05/2020 09:00 2.43 84.0 750.00 0.00 67.6
07/05/2020 08:00 2.44 85.3 750.00 0.00 64.0
07/05/2020 07:00 2.44 85.3 750.00 0.00 63.1
07/05/2020 06:00 2.43 84.0 750.00 0.00 62.1
07/05/2020 05:00 2.46 88.0 750.01 0.00 62.8
07/05/2020 04:00 2.45 86.7 750.01 0.00 62.5
07/05/2020 03:00 2.46 88.0 750.01 0.00 61.8
07/05/2020 02:00 2.46 88.0 750.01 0.00 61.5
07/05/2020 01:00 2.46 88.0 750.01 0.00 61.8
07/05/2020 00:00 2.47 89.4 750.02 0.00 63.3
07/04/2020 23:00 2.47 89.4 750.02 0.00 65.0
07/04/2020 22:00 2.46 88.0 750.02 0.00 67.6
07/04/2020 21:00 2.47 89.4 750.02 0.00 73.1
07/04/2020 20:00 2.46 88.0 750.02 0.00 80.8
07/04/2020 19:00 2.45 86.7 750.02 0.00 86.6
07/04/2020 18:00 2.48 90.7 750.03 0.00 87.8
07/04/2020 17:00 2.50 93.5 750.03 0.00 83.3
07/04/2020 16:00 2.50 93.5 750.04 0.00 84.7
07/04/2020 15:00 2.52 96.9 750.04 0.00 82.1
07/04/2020 14:00 2.52 96.9 750.04 0.00 82.5
07/04/2020 13:00 2.53 98.6 750.04 0.00 82.6
07/04/2020 12:00 2.54 100.3 750.04 0.00 80.5
07/04/2020 11:00 2.55 102.0 750.05 0.00 74.7
07/04/2020 10:00 2.54 100.3 750.05 0.00 71.8
07/04/2020 09:00 2.55 102.0 750.05 0.00 69.0
07/04/2020 08:00 2.58 107.4 750.06 0.00 66.9
07/04/2020 07:00 2.58 107.4 750.06 0.00 65.9
07/04/2020 06:00 2.57 105.6 750.06 0.00 65.6
07/04/2020 05:00 2.57 105.6 750.06 0.00 65.1
07/04/2020 04:00 2.59 109.2 750.07 0.00 65.0
07/04/2020 03:00 2.59 109.2 750.07 0.00 65.6
07/04/2020 02:00 2.60 111.0 750.07 0.00 65.7
07/04/2020 01:00 2.61 112.9 750.08 0.00 66.5
07/04/2020 00:00 2.61 112.9 750.08 0.00 67.0
07/03/2020 23:00 2.60 111.0 750.08 0.00 67.9
07/03/2020 22:00 2.64 118.8 750.09 0.00 68.7
07/03/2020 21:00 2.67 124.8 750.10 0.00 70.3
07/03/2020 20:00 2.70 131.0 750.10 0.00 70.5
07/03/2020 19:00 2.69 128.9 750.11 0.00 70.5
07/03/2020 18:00 2.71 133.3 750.12 0.00 70.4
07/03/2020 17:00 2.73 137.9 750.12 0.00 71.9
07/03/2020 16:00 2.78 150.0 750.13 0.00 72.8
07/03/2020 15:00 2.78 150.0 750.13 0.00 73.5
07/03/2020 14:00 2.75 142.7 750.13 0.00 74.7
07/03/2020 13:00 2.75 142.7 750.13 0.00 75.9
07/03/2020 12:00 2.74 140.3 750.13 0.00 76.5
07/03/2020 11:00 2.75 142.7 750.13 0.00 75.2
07/03/2020 10:00 2.75 142.7 750.13 0.00 76.6
07/03/2020 09:00 2.77 147.5 750.13 0.00 74.6
07/03/2020 08:00 2.76 145.1 750.14 0.00 78.4
07/03/2020 07:00 2.75 142.7 750.13 0.00 70.5
07/03/2020 06:00 2.77 147.5 750.14 0.00 68.5
07/03/2020 05:00 2.77 147.5 750.14 0.00 68.1
07/03/2020 04:00 2.80 155.0 750.15 0.00 68.4
07/03/2020 03:00 2.82 159.8 750.16 0.00 69.6
07/03/2020 02:00 2.80 155.0 750.16 0.00 71.3
07/03/2020 01:00 2.82 159.8 750.16 0.00 71.9
07/03/2020 00:00 2.82 159.8 750.16 0.00 72.0
07/02/2020 23:00 2.81 157.4 750.16 0.00 72.8
07/02/2020 22:00 2.82 159.8 750.16 0.00 74.4
07/02/2020 21:00 2.83 162.3 750.16 0.00 78.3
07/02/2020 20:00 2.83 162.3 750.17 0.00 82.7
07/02/2020 19:00 2.82 159.8 750.16 0.00 87.7
07/02/2020 18:00 2.83 162.3 750.17 0.00 88.9
07/02/2020 17:00 2.84 164.7 750.17 0.00 89.5
07/02/2020 16:00 2.87 172.3 750.18 0.00 88.9
07/02/2020 15:00 2.87 172.3 750.18 0.00 87.8
07/02/2020 14:00 2.87 172.3 750.18 0.00 85.4
07/02/2020 13:00 2.85 167.2 750.17 0.00 82.6
07/02/2020 12:00 2.84 164.7 750.17 0.00 79.2
07/02/2020 11:00 2.83 162.3 750.17 0.00 76.3
07/02/2020 10:00 2.82 159.8 750.16 0.00 72.7
07/02/2020 09:00 2.80 155.0 750.16 0.00 66.8
07/02/2020 08:00 2.80 155.0 750.15 0.00 65.4
07/02/2020 07:00 2.79 152.5 750.15 0.00 64.8
07/02/2020 06:00 2.79 152.5 750.15 0.00 64.8
07/02/2020 05:00 2.79 152.5 750.14 0.00 65.2
07/02/2020 04:00 2.76 145.1 750.14 0.00 65.5
07/02/2020 03:00 2.73 137.9 750.13 0.00 64.9
07/02/2020 02:00 2.71 133.3 750.12 0.00 65.6
07/02/2020 01:00 2.70 131.0 750.11 0.00 65.5
07/02/2020 00:00 2.67 124.8 750.10 0.00 66.4
07/01/2020 23:00 2.63 116.8 750.10 0.00 67.0
07/01/2020 22:00 2.61 112.9 750.09 0.00 68.7
07/01/2020 21:00 2.59 109.2 750.08 0.00 72.7
07/01/2020 20:00 2.57 105.6 750.07 0.00 73.9
07/01/2020 19:00 2.54 100.3 750.06 0.00 74.4
07/01/2020 18:00 2.54 100.3 750.06 0.00 74.8
07/01/2020 17:00 2.50 93.5 750.05 0.03 70.5
07/01/2020 16:00 2.49 92.1 750.04 0.01 70.0
07/01/2020 15:00 2.47 89.4 750.03 0.00 74.4
07/01/2020 14:00 2.44 85.3 750.02 0.00 74.7
07/01/2020 13:00 2.44 85.3 750.02 0.00 78.7
07/01/2020 12:00 2.44 85.3 750.02 0.00 73.5
07/01/2020 11:00 2.44 85.3 750.02 0.00 69.8
07/01/2020 10:00 2.45 86.7 750.02 0.00 67.7
07/01/2020 09:00 2.45 86.7 750.02 0.00 65.9
07/01/2020 08:00 2.45 86.7 750.02 0.01 65.1
07/01/2020 07:00 2.44 85.3 750.02 0.00 64.7
07/01/2020 06:00 2.43 84.0 750.02 0.00 63.9
07/01/2020 05:00 2.42 82.7 750.02 0.02 64.0
07/01/2020 04:00 2.42 82.7 750.02 0.15 64.4
07/01/2020 03:00 2.42 82.7 750.01 0.07 64.6
07/01/2020 02:00 2.40 80.1 750.00 0.06 64.3
07/01/2020 01:00 2.39 78.8 749.99 0.01 64.6
07/01/2020 00:00 2.39 78.8 749.99 0.00 64.5
06/30/2020 23:00 2.38 77.5 749.99 0.00 64.5
06/30/2020 22:00 2.38 77.5 749.99 0.00 65.2
06/30/2020 21:00 2.37 76.3 749.99 0.00 66.7
06/30/2020 20:00 2.36 75.0 749.98 0.02 68.3
06/30/2020 19:00 2.34 72.5 749.97 0.00 70.6
06/30/2020 18:00 2.33 71.3 749.97 0.00 71.6
06/30/2020 17:00 2.34 72.5 749.97 0.01 70.3
06/30/2020 16:00 2.33 71.3 749.97 -- 66.8
06/30/2020 15:00 2.32 70.1 749.96 0.00 75.3
06/30/2020 14:00 2.32 70.1 749.96 0.01 71.9
06/30/2020 13:00 2.30 67.7 749.96 0.00 69.3
06/30/2020 12:00 2.29 66.5 749.96 0.00 69.4
06/30/2020 11:00 2.29 66.5 749.96 0.00 68.5
06/30/2020 10:00 2.29 66.5 749.96 0.00 66.9
06/30/2020 09:00 2.29 66.5 749.96 0.00 65.4
06/30/2020 08:00 2.29 66.5 749.96 0.00 65.2
06/30/2020 07:00 2.30 67.7 749.96 0.00 64.1
06/30/2020 06:00 2.30 67.7 749.96 0.01 63.4
06/30/2020 05:00 2.31 68.9 749.96 0.00 63.2
06/30/2020 04:00 2.31 68.9 749.96 0.00 63.3
06/30/2020 03:00 2.32 70.1 749.97 0.01 63.3
06/30/2020 02:00 2.32 70.1 749.97 0.01 63.3
06/30/2020 01:00 2.33 71.3 749.98 0.01 63.7
06/30/2020 00:00 2.34 72.5 749.98 0.02 64.2
06/29/2020 23:00 2.31 68.9 749.97 0.00 65.0
06/29/2020 22:00 2.31 68.9 749.97 0.00 65.8
06/29/2020 21:00 2.33 71.3 749.97 0.00 66.3
06/29/2020 20:00 2.32 70.1 749.97 0.00 67.2
06/29/2020 19:00 2.32 70.1 749.97 0.00 66.7
06/29/2020 18:00 2.33 71.3 749.98 0.02 67.0
06/29/2020 17:00 2.35 73.8 749.98 0.02 66.2
06/29/2020 16:00 2.32 70.1 749.97 0.04 66.3
06/29/2020 15:00 2.32 70.1 749.96 0.29 65.0
06/29/2020 14:00 2.17 53.2 749.90 0.04 67.9
06/29/2020 13:00 2.15 51.1 749.88 0.05 70.2
06/29/2020 12:00 2.16 52.2 749.96 0.00 70.9
06/29/2020 11:00 2.16 52.2 749.88 0.00 71.2
06/29/2020 10:00 2.15 51.1 749.88 0.00 71.9
06/29/2020 09:00 2.16 52.2 749.88 0.01 66.4
06/29/2020 08:00 2.15 51.1 749.88 0.02 65.7
06/29/2020 07:00 2.15 51.1 749.88 0.00 65.6
06/29/2020 06:00 2.15 51.1 749.88 0.00 65.0
06/29/2020 05:00 2.15 51.1 749.89 0.01 64.7
06/29/2020 04:00 2.16 52.2 749.89 0.00 65.8
06/29/2020 03:00 2.16 52.2 749.89 0.12 66.0
06/29/2020 02:00 2.14 50.1 749.87 0.04 66.3
06/29/2020 01:00 2.13 49.1 749.87 0.00 67.3
06/29/2020 00:00 2.14 50.1 749.88 0.00 67.3
06/28/2020 23:00 2.16 52.2 749.88 0.00 69.8
06/28/2020 22:00 2.12 48.1 749.87 0.00 71.1
06/28/2020 21:00 2.12 48.1 749.87 0.00 73.1
06/28/2020 20:00 2.13 49.1 749.87 0.00 72.9
06/28/2020 19:00 2.11 47.1 749.87 0.00 75.0
06/28/2020 18:00 2.10 46.1 749.87 0.00 72.0
06/28/2020 17:00 2.13 49.1 749.87 0.00 71.4
06/28/2020 16:00 2.13 49.1 749.87 0.11 70.6
06/28/2020 15:00 2.10 46.1 749.86 0.00 77.1
06/28/2020 14:00 2.10 46.1 749.86 0.00 76.5
06/28/2020 13:00 2.11 47.1 749.86 0.00 76.8
06/28/2020 12:00 2.11 47.1 749.86 0.00 77.1
06/28/2020 11:00 2.12 48.1 749.86 0.00 75.3
06/28/2020 10:00 2.12 48.1 749.86 0.00 68.5
06/28/2020 09:00 2.13 49.1 749.86 0.00 66.5
06/28/2020 08:00 2.13 49.1 749.86 0.00 61.9
06/28/2020 07:00 2.12 48.1 749.86 0.00 62.1
06/28/2020 06:00 2.12 48.1 749.86 0.00 60.6
06/28/2020 05:00 2.13 49.1 749.86 0.00 60.3
06/28/2020 04:00 2.12 48.1 749.86 0.00 61.1
06/28/2020 03:00 2.12 48.1 749.86 0.00 61.9
06/28/2020 02:00 2.12 48.1 749.86 0.00 63.8
06/28/2020 01:00 2.12 48.1 749.86 0.00 64.8
06/28/2020 00:00 2.12 48.1 749.87 0.00 67.6
06/27/2020 23:00 2.12 48.1 749.86 0.00 69.2
06/27/2020 22:00 2.12 48.1 749.86 0.00 70.2
06/27/2020 21:00 2.12 48.1 749.87 0.00 71.6
06/27/2020 20:00 2.12 48.1 749.87 0.00 71.9
06/27/2020 19:00 2.12 48.1 749.87 0.00 72.6
06/27/2020 18:00 2.12 48.1 749.87 0.00 75.6
06/27/2020 17:00 -- -- -- -- --
06/27/2020 16:00 -- -- -- -- --